sensor_id;sensor_type;location;lat;lon;timestamp;pressure;altitude;pressure_sealevel;temperature;humidity
73518;BME280;61766;60.318;25.044;2023-09-19T00:01:58;101102.67;;;10.74;39.40
73518;BME280;61766;60.318;25.044;2023-09-19T00:04:23;101099.79;;;10.83;39.18
73518;BME280;61766;60.318;25.044;2023-09-19T00:06:48;101094.02;;;10.92;38.91
73518;BME280;61766;60.318;25.044;2023-09-19T00:09:13;101092.67;;;10.94;39.00
73518;BME280;61766;60.318;25.044;2023-09-19T00:11:38;101088.92;;;10.92;39.24
73518;BME280;61766;60.318;25.044;2023-09-19T00:14:03;101085.92;;;10.73;39.08
73518;BME280;61766;60.318;25.044;2023-09-19T00:16:28;101085.11;;;11.05;38.99
73518;BME280;61766;60.318;25.044;2023-09-19T00:18:53;101081.85;;;11.02;39.23
73518;BME280;61766;60.318;25.044;2023-09-19T00:21:18;101081.91;;;11.25;39.25
73518;BME280;61766;60.318;25.044;2023-09-19T00:23:43;101069.15;;;11.07;39.19
73518;BME280;61766;60.318;25.044;2023-09-19T00:26:08;101056.17;;;11.13;39.09
73518;BME280;61766;60.318;25.044;2023-09-19T00:28:33;101045.77;;;11.17;39.28
73518;BME280;61766;60.318;25.044;2023-09-19T00:30:59;101041.83;;;11.00;39.82
73518;BME280;61766;60.318;25.044;2023-09-19T00:33:24;101035.39;;;11.05;39.97
73518;BME280;61766;60.318;25.044;2023-09-19T00:35:53;101025.75;;;11.13;39.63
73518;BME280;61766;60.318;25.044;2023-09-19T00:38:14;101018.25;;;11.14;39.44
73518;BME280;61766;60.318;25.044;2023-09-19T00:40:39;101010.49;;;11.10;40.06
73518;BME280;61766;60.318;25.044;2023-09-19T00:43:04;101005.00;;;10.96;40.59
73518;BME280;61766;60.318;25.044;2023-09-19T00:45:29;101002.30;;;10.77;40.89
73518;BME280;61766;60.318;25.044;2023-09-19T00:47:54;100999.65;;;10.82;41.11
73518;BME280;61766;60.318;25.044;2023-09-19T00:50:22;101005.41;;;10.92;40.74
73518;BME280;61766;60.318;25.044;2023-09-19T00:52:46;101005.44;;;10.76;40.53
73518;BME280;61766;60.318;25.044;2023-09-19T00:55:11;101001.87;;;11.10;40.27
73518;BME280;61766;60.318;25.044;2023-09-19T00:57:35;100995.44;;;11.24;40.14
73518;BME280;61766;60.318;25.044;2023-09-19T01:00:00;100989.07;;;11.11;39.59
73518;BME280;61766;60.318;25.044;2023-09-19T01:02:25;100985.62;;;11.15;39.33
73518;BME280;61766;60.318;25.044;2023-09-19T01:04:50;100987.95;;;11.45;39.71
73518;BME280;61766;60.318;25.044;2023-09-19T01:07:15;100985.28;;;11.25;39.46
73518;BME280;61766;60.318;25.044;2023-09-19T01:09:40;100979.57;;;11.25;39.77
73518;BME280;61766;60.318;25.044;2023-09-19T01:12:08;100974.79;;;11.23;39.75
73518;BME280;61766;60.318;25.044;2023-09-19T01:14:39;100973.55;;;11.42;40.00
73518;BME280;61766;60.318;25.044;2023-09-19T01:17:00;100971.66;;;10.88;39.96
73518;BME280;61766;60.318;25.044;2023-09-19T01:21:50;100966.96;;;11.29;39.50
73518;BME280;61766;60.318;25.044;2023-09-19T01:24:28;100961.56;;;11.06;39.73
73518;BME280;61766;60.318;25.044;2023-09-19T01:26:55;100956.40;;;11.15;39.38
73518;BME280;61766;60.318;25.044;2023-09-19T01:29:16;100951.13;;;11.43;39.35
73518;BME280;61766;60.318;25.044;2023-09-19T01:31:28;100947.55;;;11.47;39.29
73518;BME280;61766;60.318;25.044;2023-09-19T01:33:59;100948.19;;;11.42;39.22
73518;BME280;61766;60.318;25.044;2023-09-19T01:36:17;100944.97;;;11.32;39.41
73518;BME280;61766;60.318;25.044;2023-09-19T01:38:42;100937.96;;;11.40;39.12
73518;BME280;61766;60.318;25.044;2023-09-19T01:41:12;100933.09;;;11.48;39.04
73518;BME280;61766;60.318;25.044;2023-09-19T01:43:37;100930.26;;;11.33;39.59
73518;BME280;61766;60.318;25.044;2023-09-19T01:46:01;100925.12;;;11.25;39.75
73518;BME280;61766;60.318;25.044;2023-09-19T01:48:28;100912.03;;;11.30;39.67
73518;BME280;61766;60.318;25.044;2023-09-19T01:50:55;100910.91;;;11.33;40.05
73518;BME280;61766;60.318;25.044;2023-09-19T01:53:19;100907.44;;;11.02;40.25
73518;BME280;61766;60.318;25.044;2023-09-19T01:55:41;100896.35;;;11.40;39.81
73518;BME280;61766;60.318;25.044;2023-09-19T01:58:08;100896.43;;;11.23;39.96
73518;BME280;61766;60.318;25.044;2023-09-19T02:00:28;100888.57;;;10.93;40.39
73518;BME280;61766;60.318;25.044;2023-09-19T02:02:53;100884.24;;;11.48;40.20
73518;BME280;61766;60.318;25.044;2023-09-19T02:05:23;100878.36;;;11.23;40.35
73518;BME280;61766;60.318;25.044;2023-09-19T02:07:43;100869.08;;;11.52;40.14
73518;BME280;61766;60.318;25.044;2023-09-19T02:10:08;100865.36;;;11.57;40.10
73518;BME280;61766;60.318;25.044;2023-09-19T02:12:33;100861.17;;;11.47;40.60
73518;BME280;61766;60.318;25.044;2023-09-19T02:14:58;100855.68;;;11.50;40.63
73518;BME280;61766;60.318;25.044;2023-09-19T02:17:23;100848.71;;;11.32;40.48
73518;BME280;61766;60.318;25.044;2023-09-19T02:19:48;100848.45;;;11.59;40.68
73518;BME280;61766;60.318;25.044;2023-09-19T02:22:13;100838.61;;;11.31;41.73
73518;BME280;61766;60.318;25.044;2023-09-19T02:24:38;100835.04;;;11.37;41.21
73518;BME280;61766;60.318;25.044;2023-09-19T02:27:04;100831.72;;;11.56;41.00
73518;BME280;61766;60.318;25.044;2023-09-19T02:29:28;100826.95;;;11.71;41.10
73518;BME280;61766;60.318;25.044;2023-09-19T02:31:54;100822.29;;;11.67;42.19
73518;BME280;61766;60.318;25.044;2023-09-19T02:34:19;100820.50;;;11.56;42.24
73518;BME280;61766;60.318;25.044;2023-09-19T02:36:44;100817.27;;;12.22;41.06
73518;BME280;61766;60.318;25.044;2023-09-19T02:39:09;100811.61;;;12.08;40.79
73518;BME280;61766;60.318;25.044;2023-09-19T02:41:34;100806.79;;;11.83;41.08
73518;BME280;61766;60.318;25.044;2023-09-19T02:43:59;100806.60;;;12.03;41.44
73518;BME280;61766;60.318;25.044;2023-09-19T02:46:24;100809.86;;;12.01;42.37
73518;BME280;61766;60.318;25.044;2023-09-19T02:48:49;100800.45;;;12.15;42.64
73518;BME280;61766;60.318;25.044;2023-09-19T02:51:14;100792.06;;;11.99;41.78
73518;BME280;61766;60.318;25.044;2023-09-19T02:53:39;100782.23;;;12.17;41.55
73518;BME280;61766;60.318;25.044;2023-09-19T02:56:04;100779.52;;;12.53;40.90
73518;BME280;61766;60.318;25.044;2023-09-19T02:58:29;100771.79;;;12.45;41.43
73518;BME280;61766;60.318;25.044;2023-09-19T03:00:54;100765.66;;;12.61;40.65
73518;BME280;61766;60.318;25.044;2023-09-19T03:03:19;100766.59;;;12.66;41.32
73518;BME280;61766;60.318;25.044;2023-09-19T03:05:44;100762.96;;;12.85;41.85
73518;BME280;61766;60.318;25.044;2023-09-19T03:08:09;100759.73;;;12.64;41.75
73518;BME280;61766;60.318;25.044;2023-09-19T03:10:35;100758.12;;;12.62;43.29
73518;BME280;61766;60.318;25.044;2023-09-19T03:13:00;100753.97;;;12.95;43.84
73518;BME280;61766;60.318;25.044;2023-09-19T03:15:25;100746.83;;;13.19;42.80
73518;BME280;61766;60.318;25.044;2023-09-19T03:17:51;100746.10;;;12.88;43.10
73518;BME280;61766;60.318;25.044;2023-09-19T03:20:15;100737.24;;;13.52;42.92
73518;BME280;61766;60.318;25.044;2023-09-19T03:22:40;100729.05;;;13.30;43.49
73518;BME280;61766;60.318;25.044;2023-09-19T03:25:05;100721.38;;;13.51;41.64
73518;BME280;61766;60.318;25.044;2023-09-19T03:27:30;100711.10;;;13.30;42.78
73518;BME280;61766;60.318;25.044;2023-09-19T03:29:56;100708.55;;;13.62;44.03
73518;BME280;61766;60.318;25.044;2023-09-19T03:32:20;100704.96;;;13.61;44.66
73518;BME280;61766;60.318;25.044;2023-09-19T03:34:45;100695.62;;;13.29;44.01
73518;BME280;61766;60.318;25.044;2023-09-19T03:37:10;100690.94;;;13.69;45.09
73518;BME280;61766;60.318;25.044;2023-09-19T03:39:35;100680.17;;;14.03;43.70
73518;BME280;61766;60.318;25.044;2023-09-19T03:42:00;100672.22;;;13.65;46.09
73518;BME280;61766;60.318;25.044;2023-09-19T03:44:25;100669.53;;;13.73;45.52
73518;BME280;61766;60.318;25.044;2023-09-19T03:46:50;100664.94;;;13.98;45.34
73518;BME280;61766;60.318;25.044;2023-09-19T03:49:15;100663.33;;;13.94;46.09
73518;BME280;61766;60.318;25.044;2023-09-19T03:51:40;100663.08;;;14.13;45.26
73518;BME280;61766;60.318;25.044;2023-09-19T03:54:05;100657.23;;;13.94;46.70
73518;BME280;61766;60.318;25.044;2023-09-19T03:56:30;100653.28;;;14.05;46.25
73518;BME280;61766;60.318;25.044;2023-09-19T03:58:55;100651.27;;;14.22;46.22
73518;BME280;61766;60.318;25.044;2023-09-19T04:01:20;100649.37;;;14.34;46.74
73518;BME280;61766;60.318;25.044;2023-09-19T04:03:45;100642.53;;;14.67;46.23
73518;BME280;61766;60.318;25.044;2023-09-19T04:06:10;100640.85;;;14.83;45.77
73518;BME280;61766;60.318;25.044;2023-09-19T04:08:36;100639.07;;;14.73;45.96
73518;BME280;61766;60.318;25.044;2023-09-19T04:11:02;100633.27;;;14.83;45.86
73518;BME280;61766;60.318;25.044;2023-09-19T04:13:27;100629.07;;;14.98;45.30
73518;BME280;61766;60.318;25.044;2023-09-19T04:15:52;100621.44;;;15.03;46.47
73518;BME280;61766;60.318;25.044;2023-09-19T04:18:18;100612.91;;;14.82;46.27
73518;BME280;61766;60.318;25.044;2023-09-19T04:20:47;100605.37;;;15.28;45.90
73518;BME280;61766;60.318;25.044;2023-09-19T04:23:10;100597.20;;;15.06;46.65
73518;BME280;61766;60.318;25.044;2023-09-19T04:25:35;100594.43;;;15.35;44.98
73518;BME280;61766;60.318;25.044;2023-09-19T04:28:01;100586.72;;;15.32;46.66
73518;BME280;61766;60.318;25.044;2023-09-19T04:30:27;100577.97;;;15.09;47.85
73518;BME280;61766;60.318;25.044;2023-09-19T04:32:53;100575.37;;;14.99;49.79
73518;BME280;61766;60.318;25.044;2023-09-19T04:35:19;100568.98;;;14.93;50.49
73518;BME280;61766;60.318;25.044;2023-09-19T04:37:44;100564.81;;;14.42;52.24
73518;BME280;61766;60.318;25.044;2023-09-19T04:40:11;100563.58;;;14.99;51.91
73518;BME280;61766;60.318;25.044;2023-09-19T04:42:35;100560.86;;;15.08;54.49
73518;BME280;61766;60.318;25.044;2023-09-19T04:45:01;100552.00;;;15.18;55.02
73518;BME280;61766;60.318;25.044;2023-09-19T04:47:27;100551.25;;;15.19;52.46
73518;BME280;61766;60.318;25.044;2023-09-19T04:49:53;100546.23;;;14.96;54.06
73518;BME280;61766;60.318;25.044;2023-09-19T04:52:19;100545.67;;;15.10;54.35
73518;BME280;61766;60.318;25.044;2023-09-19T04:54:44;100546.41;;;15.02;55.84
73518;BME280;61766;60.318;25.044;2023-09-19T04:57:10;100539.48;;;15.13;54.65
73518;BME280;61766;60.318;25.044;2023-09-19T04:59:36;100532.13;;;14.58;54.52
73518;BME280;61766;60.318;25.044;2023-09-19T05:02:02;100528.45;;;14.92;56.27
73518;BME280;61766;60.318;25.044;2023-09-19T05:04:28;100528.70;;;15.55;54.03
73518;BME280;61766;60.318;25.044;2023-09-19T05:06:53;100524.16;;;14.98;55.44
73518;BME280;61766;60.318;25.044;2023-09-19T05:09:19;100520.66;;;15.12;55.67
73518;BME280;61766;60.318;25.044;2023-09-19T05:11:45;100514.66;;;15.37;55.94
73518;BME280;61766;60.318;25.044;2023-09-19T05:14:11;100515.39;;;15.61;53.47
73518;BME280;61766;60.318;25.044;2023-09-19T05:16:37;100514.78;;;15.04;55.44
73518;BME280;61766;60.318;25.044;2023-09-19T05:19:03;100517.03;;;14.93;56.49
73518;BME280;61766;60.318;25.044;2023-09-19T05:21:30;100514.58;;;14.66;58.28
73518;BME280;61766;60.318;25.044;2023-09-19T05:23:54;100508.98;;;14.82;57.90
73518;BME280;61766;60.318;25.044;2023-09-19T05:26:20;100502.91;;;13.77;61.28
73518;BME280;61766;60.318;25.044;2023-09-19T05:28:45;100502.38;;;14.01;60.98
73518;BME280;61766;60.318;25.044;2023-09-19T05:31:11;100503.36;;;14.44;60.44
73518;BME280;61766;60.318;25.044;2023-09-19T05:33:37;100500.31;;;14.82;58.20
73518;BME280;61766;60.318;25.044;2023-09-19T05:36:03;100492.55;;;14.67;58.82
73518;BME280;61766;60.318;25.044;2023-09-19T05:38:29;100490.62;;;15.12;57.92
73518;BME280;61766;60.318;25.044;2023-09-19T05:40:55;100487.11;;;15.06;57.21
73518;BME280;61766;60.318;25.044;2023-09-19T05:43:20;100480.36;;;15.40;56.93
73518;BME280;61766;60.318;25.044;2023-09-19T05:45:46;100470.10;;;14.99;58.02
73518;BME280;61766;60.318;25.044;2023-09-19T05:48:13;100470.04;;;15.74;55.47
73518;BME280;61766;60.318;25.044;2023-09-19T05:50:38;100464.93;;;15.36;56.23
73518;BME280;61766;60.318;25.044;2023-09-19T05:53:04;100462.09;;;14.75;57.81
73518;BME280;61766;60.318;25.044;2023-09-19T05:55:29;100461.57;;;15.62;56.70
73518;BME280;61766;60.318;25.044;2023-09-19T05:57:56;100460.68;;;15.86;55.86
73518;BME280;61766;60.318;25.044;2023-09-19T06:00:22;100456.99;;;15.75;54.97
73518;BME280;61766;60.318;25.044;2023-09-19T06:02:48;100456.78;;;15.84;55.38
73518;BME280;61766;60.318;25.044;2023-09-19T06:05:13;100451.13;;;15.01;57.55
73518;BME280;61766;60.318;25.044;2023-09-19T06:07:38;100448.44;;;15.04;57.47
73518;BME280;61766;60.318;25.044;2023-09-19T06:10:05;100437.89;;;15.80;55.90
73518;BME280;61766;60.318;25.044;2023-09-19T06:12:30;100433.77;;;15.17;57.05
73518;BME280;61766;60.318;25.044;2023-09-19T06:14:56;100426.63;;;15.14;56.70
73518;BME280;61766;60.318;25.044;2023-09-19T06:17:22;100421.53;;;15.39;57.69
73518;BME280;61766;60.318;25.044;2023-09-19T06:19:47;100419.31;;;15.65;55.70
73518;BME280;61766;60.318;25.044;2023-09-19T06:22:14;100415.28;;;15.83;55.58
73518;BME280;61766;60.318;25.044;2023-09-19T06:24:39;100411.46;;;15.53;56.18
73518;BME280;61766;60.318;25.044;2023-09-19T06:27:04;100404.21;;;15.57;56.17
73518;BME280;61766;60.318;25.044;2023-09-19T06:29:30;100396.91;;;15.37;56.23
73518;BME280;61766;60.318;25.044;2023-09-19T06:31:56;100389.86;;;16.47;53.89
73518;BME280;61766;60.318;25.044;2023-09-19T06:34:22;100391.40;;;16.14;54.10
73518;BME280;61766;60.318;25.044;2023-09-19T06:36:48;100389.77;;;16.45;53.45
73518;BME280;61766;60.318;25.044;2023-09-19T06:39:13;100389.36;;;16.66;52.85
73518;BME280;61766;60.318;25.044;2023-09-19T06:41:39;100397.04;;;15.99;54.51
73518;BME280;61766;60.318;25.044;2023-09-19T06:44:05;100384.23;;;16.70;54.23
73518;BME280;61766;60.318;25.044;2023-09-19T06:46:31;100379.96;;;16.72;53.12
73518;BME280;61766;60.318;25.044;2023-09-19T06:48:56;100378.70;;;17.01;53.06
73518;BME280;61766;60.318;25.044;2023-09-19T06:51:22;100376.83;;;17.04;53.42
73518;BME280;61766;60.318;25.044;2023-09-19T06:53:48;100370.26;;;16.18;55.46
73518;BME280;61766;60.318;25.044;2023-09-19T06:56:14;100368.98;;;16.54;54.82
73518;BME280;61766;60.318;25.044;2023-09-19T06:58:40;100371.18;;;16.08;55.78
73518;BME280;61766;60.318;25.044;2023-09-19T07:01:05;100375.14;;;15.66;57.16
73518;BME280;61766;60.318;25.044;2023-09-19T07:03:31;100368.83;;;15.02;59.32
73518;BME280;61766;60.318;25.044;2023-09-19T07:05:56;100358.98;;;15.45;58.51
73518;BME280;61766;60.318;25.044;2023-09-19T07:08:22;100348.49;;;15.36;58.72
73518;BME280;61766;60.318;25.044;2023-09-19T07:10:48;100346.57;;;15.08;58.64
73518;BME280;61766;60.318;25.044;2023-09-19T07:13:14;100337.18;;;15.63;58.53
73518;BME280;61766;60.318;25.044;2023-09-19T07:15:40;100329.67;;;15.97;57.13
73518;BME280;61766;60.318;25.044;2023-09-19T07:18:05;100326.46;;;15.21;58.39
73518;BME280;61766;60.318;25.044;2023-09-19T07:20:31;100319.38;;;16.13;56.26
73518;BME280;61766;60.318;25.044;2023-09-19T07:22:56;100320.49;;;16.40;55.30
73518;BME280;61766;60.318;25.044;2023-09-19T07:25:21;100317.74;;;16.43;54.45
73518;BME280;61766;60.318;25.044;2023-09-19T07:27:47;100316.89;;;16.55;55.36
73518;BME280;61766;60.318;25.044;2023-09-19T07:30:13;100314.45;;;16.66;54.55
73518;BME280;61766;60.318;25.044;2023-09-19T07:32:39;100314.44;;;16.23;55.59
73518;BME280;61766;60.318;25.044;2023-09-19T07:35:04;100313.12;;;16.14;55.06
73518;BME280;61766;60.318;25.044;2023-09-19T07:37:29;100315.16;;;15.43;58.46
73518;BME280;61766;60.318;25.044;2023-09-19T07:39:54;100309.05;;;16.31;55.97
73518;BME280;61766;60.318;25.044;2023-09-19T07:42:20;100303.77;;;17.03;54.81
73518;BME280;61766;60.318;25.044;2023-09-19T07:44:46;100299.58;;;17.08;53.56
73518;BME280;61766;60.318;25.044;2023-09-19T07:47:11;100292.47;;;16.87;53.85
73518;BME280;61766;60.318;25.044;2023-09-19T07:49:37;100284.00;;;16.65;54.75
73518;BME280;61766;60.318;25.044;2023-09-19T07:52:02;100279.00;;;17.08;53.85
73518;BME280;61766;60.318;25.044;2023-09-19T07:54:27;100273.15;;;17.15;53.88
73518;BME280;61766;60.318;25.044;2023-09-19T07:56:53;100268.77;;;16.74;54.80
73518;BME280;61766;60.318;25.044;2023-09-19T07:59:19;100265.07;;;16.66;54.33
73518;BME280;61766;60.318;25.044;2023-09-19T08:01:45;100259.37;;;16.93;54.41
73518;BME280;61766;60.318;25.044;2023-09-19T08:04:11;100263.39;;;15.69;57.05
73518;BME280;61766;60.318;25.044;2023-09-19T08:06:36;100260.19;;;15.60;57.46
73518;BME280;61766;60.318;25.044;2023-09-19T08:09:02;100256.54;;;16.17;56.54
73518;BME280;61766;60.318;25.044;2023-09-19T08:11:27;100258.71;;;16.98;55.80
73518;BME280;61766;60.318;25.044;2023-09-19T08:13:53;100251.06;;;17.33;54.05
73518;BME280;61766;60.318;25.044;2023-09-19T08:16:19;100244.89;;;17.74;53.14
73518;BME280;61766;60.318;25.044;2023-09-19T08:18:46;100239.03;;;16.96;54.71
73518;BME280;61766;60.318;25.044;2023-09-19T08:21:11;100236.03;;;16.30;55.72
73518;BME280;61766;60.318;25.044;2023-09-19T08:23:36;100231.75;;;16.83;55.29
73518;BME280;61766;60.318;25.044;2023-09-19T08:26:01;100227.85;;;16.09;57.20
73518;BME280;61766;60.318;25.044;2023-09-19T08:28:27;100230.69;;;15.65;58.81
73518;BME280;61766;60.318;25.044;2023-09-19T08:30:52;100221.24;;;16.36;57.53
73518;BME280;61766;60.318;25.044;2023-09-19T08:33:17;100215.70;;;16.26;57.90
73518;BME280;61766;60.318;25.044;2023-09-19T08:35:43;100206.05;;;16.46;58.06
73518;BME280;61766;60.318;25.044;2023-09-19T08:38:08;100211.61;;;15.93;58.80
73518;BME280;61766;60.318;25.044;2023-09-19T08:40:36;100214.05;;;16.47;57.77
73518;BME280;61766;60.318;25.044;2023-09-19T08:42:59;100210.92;;;16.75;56.67
73518;BME280;61766;60.318;25.044;2023-09-19T08:45:26;100212.77;;;16.29;57.34
73518;BME280;61766;60.318;25.044;2023-09-19T08:48:00;100214.24;;;16.48;57.42
73518;BME280;61766;60.318;25.044;2023-09-19T08:50:23;100199.79;;;16.78;56.43
73518;BME280;61766;60.318;25.044;2023-09-19T08:52:45;100193.03;;;17.00;55.12
73518;BME280;61766;60.318;25.044;2023-09-19T08:55:11;100185.31;;;17.24;55.30
73518;BME280;61766;60.318;25.044;2023-09-19T08:57:36;100174.91;;;17.17;54.57
73518;BME280;61766;60.318;25.044;2023-09-19T09:00:00;100168.79;;;17.24;54.65
73518;BME280;61766;60.318;25.044;2023-09-19T09:02:25;100169.21;;;17.70;53.32
73518;BME280;61766;60.318;25.044;2023-09-19T09:04:52;100169.74;;;16.52;56.63
73518;BME280;61766;60.318;25.044;2023-09-19T09:07:17;100171.47;;;16.58;56.31
73518;BME280;61766;60.318;25.044;2023-09-19T09:09:42;100166.88;;;16.72;55.85
73518;BME280;61766;60.318;25.044;2023-09-19T09:12:08;100160.68;;;17.04;56.18
73518;BME280;61766;60.318;25.044;2023-09-19T09:14:34;100155.49;;;17.34;55.59
73518;BME280;61766;60.318;25.044;2023-09-19T09:16:59;100149.71;;;16.66;57.08
73518;BME280;61766;60.318;25.044;2023-09-19T09:19:24;100143.69;;;16.62;56.73
73518;BME280;61766;60.318;25.044;2023-09-19T09:21:50;100139.06;;;16.95;56.50
73518;BME280;61766;60.318;25.044;2023-09-19T09:24:26;100132.71;;;16.90;56.56
73518;BME280;61766;60.318;25.044;2023-09-19T09:26:45;100128.12;;;16.93;56.05
73518;BME280;61766;60.318;25.044;2023-09-19T09:29:07;100125.75;;;16.44;57.97
73518;BME280;61766;60.318;25.044;2023-09-19T09:31:32;100121.75;;;16.38;57.15
73518;BME280;61766;60.318;25.044;2023-09-19T09:33:58;100119.45;;;16.90;56.06
73518;BME280;61766;60.318;25.044;2023-09-19T09:36:34;100121.76;;;15.82;60.04
73518;BME280;61766;60.318;25.044;2023-09-19T09:38:50;100114.37;;;16.74;57.99
73518;BME280;61766;60.318;25.044;2023-09-19T09:41:15;100111.93;;;16.52;58.50
73518;BME280;61766;60.318;25.044;2023-09-19T09:43:41;100099.83;;;16.48;58.78
73518;BME280;61766;60.318;25.044;2023-09-19T09:46:12;100092.27;;;17.13;57.36
73518;BME280;61766;60.318;25.044;2023-09-19T09:48:31;100096.12;;;17.45;56.11
73518;BME280;61766;60.318;25.044;2023-09-19T09:50:56;100084.53;;;16.46;57.57
73518;BME280;61766;60.318;25.044;2023-09-19T09:53:25;100081.40;;;17.31;55.78
73518;BME280;61766;60.318;25.044;2023-09-19T09:55:58;100077.29;;;17.51;54.76
73518;BME280;61766;60.318;25.044;2023-09-19T09:58:20;100082.39;;;17.05;56.29
73518;BME280;61766;60.318;25.044;2023-09-19T10:03:04;100070.90;;;17.28;56.12
73518;BME280;61766;60.318;25.044;2023-09-19T10:05:29;100063.09;;;17.42;55.88
73518;BME280;61766;60.318;25.044;2023-09-19T10:07:55;100057.58;;;16.82;56.61
73518;BME280;61766;60.318;25.044;2023-09-19T10:10:29;100051.87;;;17.09;56.27
73518;BME280;61766;60.318;25.044;2023-09-19T10:12:47;100047.64;;;17.70;54.72
73518;BME280;61766;60.318;25.044;2023-09-19T10:15:14;100046.09;;;17.65;55.02
73518;BME280;61766;60.318;25.044;2023-09-19T10:17:38;100042.59;;;17.52;55.54
73518;BME280;61766;60.318;25.044;2023-09-19T10:20:03;100040.80;;;17.86;54.36
73518;BME280;61766;60.318;25.044;2023-09-19T10:22:29;100033.45;;;18.35;53.24
73518;BME280;61766;60.318;25.044;2023-09-19T10:24:56;100034.14;;;17.41;55.40
73518;BME280;61766;60.318;25.044;2023-09-19T10:27:20;100029.87;;;17.52;55.89
73518;BME280;61766;60.318;25.044;2023-09-19T10:29:47;100023.28;;;17.64;56.33
73518;BME280;61766;60.318;25.044;2023-09-19T10:32:12;100016.10;;;17.23;56.84
73518;BME280;61766;60.318;25.044;2023-09-19T10:34:37;100007.39;;;17.72;55.79
73518;BME280;61766;60.318;25.044;2023-09-19T10:37:03;100004.12;;;17.60;56.52
73518;BME280;61766;60.318;25.044;2023-09-19T10:39:27;99998.96;;;17.55;56.61
73518;BME280;61766;60.318;25.044;2023-09-19T10:41:55;99995.50;;;17.99;55.70
73518;BME280;61766;60.318;25.044;2023-09-19T10:44:23;99993.16;;;17.73;56.16
73518;BME280;61766;60.318;25.044;2023-09-19T10:46:44;99993.33;;;17.71;55.80
73518;BME280;61766;60.318;25.044;2023-09-19T10:49:10;99987.70;;;18.22;54.79
73518;BME280;61766;60.318;25.044;2023-09-19T10:51:41;99986.72;;;17.89;55.29
73518;BME280;61766;60.318;25.044;2023-09-19T10:54:05;99984.41;;;17.72;56.25
73518;BME280;61766;60.318;25.044;2023-09-19T10:56:29;99977.95;;;17.83;56.31
73518;BME280;61766;60.318;25.044;2023-09-19T11:01:19;99968.19;;;18.21;56.42
73518;BME280;61766;60.318;25.044;2023-09-19T11:03:43;99972.47;;;18.25;55.88
73518;BME280;61766;60.318;25.044;2023-09-19T11:06:11;99972.27;;;17.72;56.59
73518;BME280;61766;60.318;25.044;2023-09-19T11:11:00;99971.58;;;17.65;57.54
73518;BME280;61766;60.318;25.044;2023-09-19T11:13:29;99970.88;;;17.31;57.99
73518;BME280;61766;60.318;25.044;2023-09-19T11:16:03;99965.50;;;17.95;57.28
73518;BME280;61766;60.318;25.044;2023-09-19T11:20:41;99957.88;;;18.06;56.67
73518;BME280;61766;60.318;25.044;2023-09-19T11:23:18;99945.32;;;18.02;56.66
73518;BME280;61766;60.318;25.044;2023-09-19T11:25:42;99946.34;;;17.94;56.77
73518;BME280;61766;60.318;25.044;2023-09-19T11:30:29;99943.04;;;17.90;56.37
73518;BME280;61766;60.318;25.044;2023-09-19T11:35:15;99934.93;;;17.65;57.89
73518;BME280;61766;60.318;25.044;2023-09-19T11:40:10;99920.88;;;17.66;57.79
73518;BME280;61766;60.318;25.044;2023-09-19T11:42:42;99924.15;;;18.50;56.11
73518;BME280;61766;60.318;25.044;2023-09-19T11:44:57;99919.13;;;18.49;55.86
73518;BME280;61766;60.318;25.044;2023-09-19T11:47:23;99917.03;;;18.94;55.19
73518;BME280;61766;60.318;25.044;2023-09-19T11:49:48;99921.04;;;19.03;54.75
73518;BME280;61766;60.318;25.044;2023-09-19T11:52:19;99919.43;;;18.84;54.38
73518;BME280;61766;60.318;25.044;2023-09-19T11:54:39;99926.36;;;18.40;55.82
73518;BME280;61766;60.318;25.044;2023-09-19T11:57:05;99919.54;;;19.45;53.58
73518;BME280;61766;60.318;25.044;2023-09-19T11:59:31;99925.32;;;17.89;56.95
73518;BME280;61766;60.318;25.044;2023-09-19T12:01:57;99911.21;;;18.30;57.65
73518;BME280;61766;60.318;25.044;2023-09-19T12:06:56;99902.35;;;18.42;56.38
73518;BME280;61766;60.318;25.044;2023-09-19T12:09:15;99898.12;;;18.88;55.34
73518;BME280;61766;60.318;25.044;2023-09-19T12:11:43;99893.60;;;18.53;54.99
73518;BME280;61766;60.318;25.044;2023-09-19T12:14:03;99891.45;;;18.76;55.17
73518;BME280;61766;60.318;25.044;2023-09-19T12:16:28;99885.45;;;19.44;53.60
73518;BME280;61766;60.318;25.044;2023-09-19T12:18:54;99875.99;;;19.43;53.27
73518;BME280;61766;60.318;25.044;2023-09-19T12:21:28;99878.01;;;18.99;54.26
73518;BME280;61766;60.318;25.044;2023-09-19T12:23:45;99867.39;;;18.96;53.89
73518;BME280;61766;60.318;25.044;2023-09-19T12:26:10;99860.68;;;18.75;54.24
73518;BME280;61766;60.318;25.044;2023-09-19T12:28:41;99858.40;;;18.83;54.84
73518;BME280;61766;60.318;25.044;2023-09-19T12:33:26;99837.48;;;19.79;52.25
73518;BME280;61766;60.318;25.044;2023-09-19T12:35:51;99835.52;;;20.28;51.32
73518;BME280;61766;60.318;25.044;2023-09-19T12:38:25;99835.03;;;19.57;52.28
73518;BME280;61766;60.318;25.044;2023-09-19T12:40:42;99823.47;;;19.33;53.34
73518;BME280;61766;60.318;25.044;2023-09-19T12:43:08;99824.79;;;19.72;52.64
73518;BME280;61766;60.318;25.044;2023-09-19T12:45:33;99815.81;;;19.88;52.54
73518;BME280;61766;60.318;25.044;2023-09-19T12:50:23;99804.83;;;20.37;50.89
73518;BME280;61766;60.318;25.044;2023-09-19T12:52:49;99800.84;;;20.60;50.11
73518;BME280;61766;60.318;25.044;2023-09-19T12:55:20;99796.77;;;20.07;51.04
73518;BME280;61766;60.318;25.044;2023-09-19T12:57:40;99796.20;;;20.20;50.84